Time;durP1;ratioP1;P1;durP2;ratioP2;P2;SDS_P1;SDS_P2;PMS_P1;PMS_P2;Temp;Humidity;BMP_temperature;BMP_pressure;BME280_temperature;BME280_humidity;BME280_pressure;Samples;Min_cycle;Max_cycle;Signal;HPM_P1;HPM_P2
2022/12/27 00:00:00;;;;;;;30.90;12.93;;;;;;;;;;1029781;28;20054;-77
2022/12/27 00:00:30;;;;;;;24.98;12.27;;;;;;;;;;1032230;28;20058;-77
2022/12/27 00:01:01;;;;;;;27.67;17.13;;;;;;;;;;1030125;28;20065;-77
2022/12/27 00:01:32;;;;;;;28.92;12.57;;;;;;;;;;1030253;28;20018;-77
2022/12/27 00:02:03;;;;;;;27.20;13.02;;;;;;;;;;1028919;28;20027;-77
2022/12/27 00:02:35;;;;;;;53.83;23.25;;;;;;;;;;1029372;28;20022;-77
2022/12/27 00:03:05;;;;;;;40.95;21.20;;;;;;;;;;1029431;28;20053;-77
2022/12/27 00:03:36;;;;;;;34.85;16.30;;;;;;;;;;1029529;28;20030;-77
2022/12/27 00:04:06;;;;;;;34.00;15.35;;;;;;;;;;1030817;28;20029;-77
2022/12/27 00:04:37;;;;;;;33.70;17.13;;;;;;;;;;1029638;28;20026;-77
2022/12/27 00:05:09;;;;;;;36.17;17.40;;;;;;;;;;1029721;28;20023;-77
2022/12/27 00:05:42;;;;;;;37.63;17.42;;;;;;;;;;1029992;28;20538;-77
2022/12/27 00:06:18;;;;;;;35.53;14.38;;;;;;;;;;1030159;28;20030;-77
2022/12/27 00:06:48;;;;;;;52.40;18.92;;;;;;;;;;1029516;28;20065;-77
2022/12/27 00:07:19;;;;;;;33.20;17.20;;;;;;;;;;1029839;28;20021;-77
2022/12/27 00:07:49;;;;;;;38.10;18.33;;;;;;;;;;1029768;28;20108;-77
2022/12/27 00:08:20;;;;;;;31.98;16.42;;;;;;;;;;1029401;28;20026;-77
2022/12/27 00:08:51;;;;;;;31.17;14.82;;;;;;;;;;1031624;28;20018;-77
2022/12/27 00:09:21;;;;;;;37.80;18.42;;;;;;;;;;1031542;28;20022;-77
2022/12/27 00:09:52;;;;;;;39.15;17.67;;;;;;;;;;1031695;28;20474;-77
2022/12/27 00:10:23;;;;;;;36.22;16.02;;;;;;;;;;1031498;28;20053;-77
2022/12/27 00:10:53;;;;;;;38.67;17.98;;;;;;;;;;1032888;28;20109;-77
2022/12/27 00:11:25;;;;;;;31.98;16.85;;;;;;;;;;1032679;28;20029;-77
2022/12/27 00:11:56;;;;;;;53.60;21.42;;;;;;;;;;1029949;28;20036;-77
2022/12/27 00:12:26;;;;;;;52.17;22.23;;;;;;;;;;1028888;28;20033;-77
2022/12/27 00:12:57;;;;;;;52.55;22.30;;;;;;;;;;1028733;28;20137;-78
2022/12/27 00:13:27;;;;;;;67.05;20.67;;;;;;;;;;1028082;28;20034;-77
2022/12/27 00:13:59;;;;;;;53.65;21.65;;;;;;;;;;1029463;28;20481;-77
2022/12/27 00:14:29;;;;;;;48.78;21.27;;;;;;;;;;1029385;28;20191;-77
2022/12/27 00:15:00;;;;;;;53.08;21.17;;;;;;;;;;1029530;28;20119;-77
2022/12/27 00:15:32;;;;;;;43.58;18.77;;;;;;;;;;1031530;28;20052;-77
2022/12/27 00:16:04;;;;;;;54.75;19.65;;;;;;;;;;1031585;28;20034;-77
2022/12/27 00:16:34;;;;;;;59.65;21.13;;;;;;;;;;1031681;28;20060;-77
2022/12/27 00:17:05;;;;;;;62.50;22.08;;;;;;;;;;1031546;28;20022;-77
2022/12/27 00:17:36;;;;;;;48.38;23.60;;;;;;;;;;1032040;28;20065;-77
2022/12/27 00:18:06;;;;;;;50.35;21.35;;;;;;;;;;1031734;28;20022;-77
2022/12/27 00:18:37;;;;;;;50.67;21.92;;;;;;;;;;1026251;28;20027;-77
2022/12/27 00:19:08;;;;;;;47.17;21.05;;;;;;;;;;1025887;28;20490;-77
2022/12/27 00:19:38;;;;;;;56.70;25.70;;;;;;;;;;1028779;28;20034;-77
2022/12/27 00:20:09;;;;;;;69.40;27.52;;;;;;;;;;1029646;28;20026;-77
2022/12/27 00:20:40;;;;;;;48.60;23.15;;;;;;;;;;1030011;28;20018;-77
2022/12/27 00:21:11;;;;;;;54.78;24.58;;;;;;;;;;1029440;28;20035;-77
2022/12/27 00:21:42;;;;;;;57.28;27.42;;;;;;;;;;1029636;28;20121;-77
2022/12/27 00:22:12;;;;;;;59.88;28.02;;;;;;;;;;1029336;28;20025;-77
2022/12/27 00:22:43;;;;;;;58.70;27.58;;;;;;;;;;1029718;28;20105;-77
2022/12/27 00:23:14;;;;;;;68.15;28.85;;;;;;;;;;1033236;28;20065;-77
2022/12/27 00:23:46;;;;;;;56.83;28.50;;;;;;;;;;1033045;28;20382;-77
2022/12/27 00:24:17;;;;;;;58.50;27.70;;;;;;;;;;1032803;28;20115;-77
2022/12/27 00:24:47;;;;;;;69.57;27.75;;;;;;;;;;1033183;28;20456;-77
2022/12/27 00:25:18;;;;;;;57.05;27.05;;;;;;;;;;1028980;28;20018;-77
2022/12/27 00:25:48;;;;;;;60.28;26.15;;;;;;;;;;1029347;28;20334;-77
2022/12/27 00:26:23;;;;;;;55.10;26.05;;;;;;;;;;1031183;28;20034;-77
2022/12/27 00:26:54;;;;;;;53.42;25.13;;;;;;;;;;1029698;28;20154;-77
2022/12/27 00:27:24;;;;;;;63.00;27.80;;;;;;;;;;1033017;28;20080;-77
2022/12/27 00:27:55;;;;;;;52.40;25.60;;;;;;;;;;1029223;28;20037;-77
2022/12/27 00:28:28;;;;;;;44.15;23.02;;;;;;;;;;1028371;28;20020;-77
2022/12/27 00:28:58;;;;;;;52.78;26.92;;;;;;;;;;1029867;28;20023;-76
2022/12/27 00:29:29;;;;;;;53.60;22.63;;;;;;;;;;1029145;28;20011;-77
2022/12/27 00:30:00;;;;;;;51.83;26.95;;;;;;;;;;1029769;28;20070;-77
2022/12/27 00:30:31;;;;;;;43.22;23.73;;;;;;;;;;1028879;28;20496;-77
2022/12/27 00:31:02;;;;;;;48.63;23.08;;;;;;;;;;1025314;28;20102;-77
2022/12/27 00:31:33;;;;;;;44.22;21.42;;;;;;;;;;1029711;28;20029;-77
2022/12/27 00:32:03;;;;;;;57.78;24.65;;;;;;;;;;1029858;28;20369;-78
2022/12/27 00:32:34;;;;;;;47.42;22.27;;;;;;;;;;1029572;28;20467;-77
2022/12/27 00:33:04;;;;;;;49.47;22.80;;;;;;;;;;1029705;28;20030;-77
2022/12/27 00:33:36;;;;;;;47.75;21.67;;;;;;;;;;1025452;28;20015;-77
2022/12/27 00:34:06;;;;;;;46.17;22.85;;;;;;;;;;1029446;28;20506;-77
2022/12/27 00:34:37;;;;;;;45.28;23.90;;;;;;;;;;1033349;28;20018;-77
2022/12/27 00:35:08;;;;;;;43.42;19.50;;;;;;;;;;1029289;28;20082;-77
2022/12/27 00:35:38;;;;;;;53.05;22.65;;;;;;;;;;1029598;28;20402;-77
2022/12/27 00:36:11;;;;;;;48.17;22.10;;;;;;;;;;1028637;28;20023;-77
2022/12/27 00:36:41;;;;;;;40.38;20.55;;;;;;;;;;1029498;28;20022;-77
2022/12/27 00:37:12;;;;;;;50.25;23.23;;;;;;;;;;1030390;28;20022;-77
2022/12/27 00:37:42;;;;;;;48.95;24.52;;;;;;;;;;1029458;28;20122;-77
2022/12/27 00:38:13;;;;;;;42.20;21.67;;;;;;;;;;1029752;28;20467;-77
2022/12/27 00:38:43;;;;;;;57.97;25.60;;;;;;;;;;1030174;28;20129;-77
2022/12/27 00:39:14;;;;;;;50.75;24.20;;;;;;;;;;1028379;28;20424;-77
2022/12/27 00:39:44;;;;;;;47.00;21.85;;;;;;;;;;1028581;28;20034;-77
2022/12/27 00:40:15;;;;;;;50.60;24.77;;;;;;;;;;1028896;28;20026;-77
2022/12/27 00:40:46;;;;;;;52.35;25.52;;;;;;;;;;1029232;28;20058;-77
2022/12/27 00:41:17;;;;;;;46.78;24.48;;;;;;;;;;1029850;28;20022;-77
2022/12/27 00:41:47;;;;;;;61.17;26.30;;;;;;;;;;1033418;28;20060;-77
2022/12/27 00:42:18;;;;;;;62.10;25.40;;;;;;;;;;1033117;28;20529;-77
2022/12/27 00:42:48;;;;;;;53.97;23.75;;;;;;;;;;1033616;28;20030;-77
2022/12/27 00:43:19;;;;;;;52.22;23.20;;;;;;;;;;1033133;28;20026;-77
2022/12/27 00:43:49;;;;;;;52.83;24.25;;;;;;;;;;1031628;28;20030;-77
2022/12/27 00:44:20;;;;;;;61.33;24.83;;;;;;;;;;1031287;28;20022;-77
2022/12/27 00:44:50;;;;;;;40.28;21.85;;;;;;;;;;1030828;28;20027;-77
2022/12/27 00:45:21;;;;;;;53.33;25.73;;;;;;;;;;1029345;28;20026;-77
2022/12/27 00:45:51;;;;;;;48.33;22.65;;;;;;;;;;1029058;28;20077;-77
2022/12/27 00:46:22;;;;;;;55.78;23.52;;;;;;;;;;1029289;28;20451;-77
2022/12/27 00:46:53;;;;;;;55.65;24.80;;;;;;;;;;1029652;28;20077;-77
2022/12/27 00:47:23;;;;;;;75.18;28.63;;;;;;;;;;1029673;28;20034;-77
2022/12/27 00:47:54;;;;;;;65.88;31.33;;;;;;;;;;1033151;28;20045;-77
2022/12/27 00:48:24;;;;;;;65.68;32.70;;;;;;;;;;1033166;28;20417;-77
2022/12/27 00:48:56;;;;;;;70.03;30.42;;;;;;;;;;1033725;28;20026;-77
2022/12/27 00:49:26;;;;;;;84.55;35.13;;;;;;;;;;1028518;28;20534;-77
2022/12/27 00:49:57;;;;;;;73.82;33.78;;;;;;;;;;1029206;28;20038;-77
2022/12/27 00:50:28;;;;;;;67.28;31.85;;;;;;;;;;1030417;28;20062;-77
2022/12/27 00:51:00;;;;;;;69.13;31.52;;;;;;;;;;1030822;28;20389;-77
2022/12/27 00:51:30;;;;;;;79.50;35.85;;;;;;;;;;1033750;28;20617;-78
2022/12/27 00:52:01;;;;;;;90.05;38.72;;;;;;;;;;1034260;28;20022;-78
2022/12/27 00:52:31;;;;;;;90.30;35.15;;;;;;;;;;1028754;28;20031;-77
2022/12/27 00:53:02;;;;;;;92.93;36.33;;;;;;;;;;1029699;28;20030;-77
2022/12/27 00:53:33;;;;;;;93.28;36.75;;;;;;;;;;1029591;28;20026;-77
2022/12/27 00:54:04;;;;;;;89.30;35.15;;;;;;;;;;1029748;28;20015;-77
2022/12/27 00:54:34;;;;;;;91.78;36.70;;;;;;;;;;1028737;28;20027;-77
2022/12/27 00:55:05;;;;;;;84.20;35.05;;;;;;;;;;1028116;28;20523;-77
2022/12/27 00:55:36;;;;;;;92.50;36.38;;;;;;;;;;1030427;28;20022;-77
2022/12/27 00:56:08;;;;;;;79.57;35.38;;;;;;;;;;1027665;28;20444;-77
2022/12/27 00:56:38;;;;;;;80.68;32.65;;;;;;;;;;1029670;28;20023;-77
2022/12/27 00:57:09;;;;;;;82.32;34.67;;;;;;;;;;1029929;28;20022;-77
2022/12/27 00:57:39;;;;;;;83.97;35.80;;;;;;;;;;1029125;28;20027;-77
2022/12/27 00:58:10;;;;;;;84.57;32.80;;;;;;;;;;1028412;28;20023;-77
2022/12/27 00:58:40;;;;;;;80.05;31.35;;;;;;;;;;1028166;28;20033;-77
2022/12/27 00:59:11;;;;;;;85.60;32.72;;;;;;;;;;1029252;28;20039;-77
2022/12/27 00:59:42;;;;;;;70.80;29.17;;;;;;;;;;1028820;28;20550;-77
2022/12/27 01:00:12;;;;;;;77.07;31.30;;;;;;;;;;1031686;28;20038;-77
2022/12/27 01:00:43;;;;;;;72.57;30.83;;;;;;;;;;1031246;28;20018;-77
2022/12/27 01:01:15;;;;;;;84.30;33.30;;;;;;;;;;1031272;28;20470;-77
2022/12/27 01:01:45;;;;;;;73.53;29.33;;;;;;;;;;1031563;28;20644;-77
2022/12/27 01:02:16;;;;;;;65.82;27.98;;;;;;;;;;1031546;28;20077;-77
2022/12/27 01:02:47;;;;;;;77.93;27.58;;;;;;;;;;1033407;28;20081;-77
2022/12/27 01:03:18;;;;;;;67.32;27.67;;;;;;;;;;1034272;28;20454;-77
2022/12/27 01:03:49;;;;;;;76.68;32.28;;;;;;;;;;1033377;28;20018;-77
2022/12/27 01:04:19;;;;;;;76.50;30.13;;;;;;;;;;1033073;28;20035;-77
2022/12/27 01:04:52;;;;;;;67.30;29.27;;;;;;;;;;1033783;28;20102;-77
2022/12/27 01:05:22;;;;;;;80.20;31.85;;;;;;;;;;1032064;28;20553;-77
2022/12/27 01:05:53;;;;;;;80.53;33.20;;;;;;;;;;1029416;28;20057;-77
2022/12/27 01:06:25;;;;;;;98.70;39.50;;;;;;;;;;1029085;28;20073;-77
2022/12/27 01:06:55;;;;;;;115.20;41.72;;;;;;;;;;1032625;28;20478;-77
2022/12/27 01:07:26;;;;;;;108.32;42.40;;;;;;;;;;1033307;28;20018;-77
2022/12/27 01:07:56;;;;;;;114.13;47.58;;;;;;;;;;1032948;28;21274;-77
2022/12/27 01:08:28;;;;;;;136.40;47.58;;;;;;;;;;1031933;28;20022;-77
2022/12/27 01:09:00;;;;;;;103.38;40.60;;;;;;;;;;1029291;28;20076;-77
2022/12/27 01:09:30;;;;;;;111.55;45.00;;;;;;;;;;1028287;28;20026;-77
2022/12/27 01:10:01;;;;;;;145.65;53.80;;;;;;;;;;1032119;28;20017;-77
2022/12/27 01:10:32;;;;;;;150.00;59.47;;;;;;;;;;1030576;28;20025;-77
2022/12/27 01:11:03;;;;;;;129.95;49.90;;;;;;;;;;1028791;28;20038;-77
2022/12/27 01:11:34;;;;;;;116.35;49.08;;;;;;;;;;1029436;28;20023;-77
2022/12/27 01:12:04;;;;;;;106.13;43.22;;;;;;;;;;1029585;28;20069;-77
2022/12/27 01:12:35;;;;;;;117.55;45.88;;;;;;;;;;1029113;28;20800;-77
2022/12/27 01:13:06;;;;;;;108.78;42.20;;;;;;;;;;1033023;28;20109;-78
2022/12/27 01:13:37;;;;;;;105.00;44.78;;;;;;;;;;1033309;28;20038;-78
2022/12/27 01:14:09;;;;;;;101.05;38.47;;;;;;;;;;1033055;28;20029;-77
2022/12/27 01:14:39;;;;;;;89.78;35.92;;;;;;;;;;1032773;28;20133;-77
2022/12/27 01:15:10;;;;;;;87.95;35.40;;;;;;;;;;1029179;28;20522;-77
2022/12/27 01:15:41;;;;;;;86.50;35.40;;;;;;;;;;1029763;28;20545;-77
2022/12/27 01:16:13;;;;;;;75.63;30.05;;;;;;;;;;1030232;28;20069;-77
2022/12/27 01:16:44;;;;;;;84.38;31.38;;;;;;;;;;1029418;28;20021;-77
2022/12/27 01:17:15;;;;;;;76.18;31.65;;;;;;;;;;1029351;28;20026;-77
2022/12/27 01:17:45;;;;;;;80.75;31.33;;;;;;;;;;1029850;28;20058;-77
2022/12/27 01:18:16;;;;;;;90.32;32.00;;;;;;;;;;1030788;28;20561;-77
2022/12/27 01:18:47;;;;;;;142.63;47.30;;;;;;;;;;1030977;28;20096;-77
2022/12/27 01:19:17;;;;;;;109.10;37.95;;;;;;;;;;1030144;28;20023;-77
2022/12/27 01:19:48;;;;;;;121.07;43.38;;;;;;;;;;1031399;28;20058;-78
2022/12/27 01:20:18;;;;;;;122.35;45.33;;;;;;;;;;1033777;28;20509;-77
2022/12/27 01:20:49;;;;;;;104.25;41.60;;;;;;;;;;1028389;28;20026;-77
2022/12/27 01:21:20;;;;;;;90.57;36.20;;;;;;;;;;1028621;28;20044;-77
2022/12/27 01:21:51;;;;;;;91.18;39.13;;;;;;;;;;1028473;28;20026;-77
2022/12/27 01:22:22;;;;;;;104.88;39.20;;;;;;;;;;1028669;28;20466;-77
2022/12/27 01:22:53;;;;;;;122.68;42.28;;;;;;;;;;1033905;28;20508;-77
2022/12/27 01:23:25;;;;;;;120.93;47.08;;;;;;;;;;1028252;28;20026;-76
2022/12/27 01:23:55;;;;;;;116.57;43.22;;;;;;;;;;1028102;28;20099;-77
2022/12/27 01:24:26;;;;;;;109.97;43.45;;;;;;;;;;1029226;28;20245;-77
2022/12/27 01:24:56;;;;;;;104.60;36.80;;;;;;;;;;1029836;28;20060;-77
2022/12/27 01:25:27;;;;;;;102.70;40.08;;;;;;;;;;1030275;28;20061;-77
2022/12/27 01:25:58;;;;;;;130.07;46.13;;;;;;;;;;1030741;28;20026;-77
2022/12/27 01:26:29;;;;;;;164.13;60.72;;;;;;;;;;1031220;28;20058;-77
2022/12/27 01:26:59;;;;;;;145.77;51.03;;;;;;;;;;1031308;28;20052;-77
2022/12/27 01:27:30;;;;;;;140.48;50.15;;;;;;;;;;1030942;28;20026;-77
2022/12/27 01:28:00;;;;;;;139.63;52.90;;;;;;;;;;1030789;28;20045;-77
2022/12/27 01:28:32;;;;;;;92.38;37.05;;;;;;;;;;1031307;28;20030;-77
2022/12/27 01:29:02;;;;;;;66.60;28.33;;;;;;;;;;1031187;28;20541;-77
2022/12/27 01:29:33;;;;;;;62.78;27.33;;;;;;;;;;1030229;28;20382;-77
2022/12/27 01:30:04;;;;;;;53.70;25.63;;;;;;;;;;1029717;28;20085;-77
2022/12/27 01:30:38;;;;;;;72.13;31.95;;;;;;;;;;1031012;28;20088;-78
2022/12/27 01:31:14;;;;;;;85.07;33.33;;;;;;;;;;1035185;23;20097;-77
2022/12/27 01:31:45;;;;;;;70.45;30.33;;;;;;;;;;1030983;28;20050;-76
2022/12/27 01:32:16;;;;;;;82.40;35.10;;;;;;;;;;1031648;28;20054;-77
2022/12/27 01:32:46;;;;;;;85.72;33.40;;;;;;;;;;1033632;28;20136;-77
2022/12/27 01:33:17;;;;;;;91.95;40.67;;;;;;;;;;1031256;28;20211;-77
2022/12/27 01:33:48;;;;;;;118.55;48.13;;;;;;;;;;1029115;28;20556;-77
2022/12/27 01:34:18;;;;;;;122.32;46.38;;;;;;;;;;1032269;28;20053;-76
2022/12/27 01:34:49;;;;;;;90.88;38.55;;;;;;;;;;1028403;28;20129;-77
2022/12/27 01:35:20;;;;;;;130.63;50.85;;;;;;;;;;1028892;28;20022;-77
2022/12/27 01:35:51;;;;;;;123.30;53.65;;;;;;;;;;1028368;28;20445;-76
2022/12/27 01:36:22;;;;;;;105.60;52.03;;;;;;;;;;1028320;28;20029;-77
2022/12/27 01:36:53;;;;;;;133.82;53.28;;;;;;;;;;1029226;28;20691;-77
2022/12/27 01:37:23;;;;;;;121.63;53.40;;;;;;;;;;1028351;28;20023;-77
2022/12/27 01:37:54;;;;;;;108.90;51.42;;;;;;;;;;1028334;28;20081;-77
2022/12/27 01:38:24;;;;;;;118.20;56.88;;;;;;;;;;1026756;28;20063;-77
2022/12/27 01:38:55;;;;;;;110.03;50.22;;;;;;;;;;1027656;28;20111;-77
2022/12/27 01:39:25;;;;;;;122.75;53.67;;;;;;;;;;1028618;28;20565;-77
2022/12/27 01:39:56;;;;;;;114.25;50.78;;;;;;;;;;1029242;28;20044;-77
2022/12/27 01:40:27;;;;;;;116.30;52.45;;;;;;;;;;1029001;28;20019;-77
2022/12/27 01:40:57;;;;;;;110.82;51.88;;;;;;;;;;1029243;28;20034;-77
2022/12/27 01:43:15;;;;;;;102.18;46.33;;;;;;;;;;1027718;28;20026;-77
2022/12/27 01:43:46;;;;;;;106.32;46.33;;;;;;;;;;1028910;28;20015;-77
2022/12/27 01:44:37;;;;;;;107.60;48.30;;;;;;;;;;1027660;28;20068;-78
2022/12/27 01:45:27;;;;;;;94.93;43.33;;;;;;;;;;1025989;28;20113;-77
2022/12/27 01:45:57;;;;;;;;;;;;;;;;;;1029307;28;20054;-77
2022/12/27 01:46:31;;;;;;;86.43;39.13;;;;;;;;;;1028154;28;19916;-78
2022/12/27 01:47:02;;;;;;;92.32;42.85;;;;;;;;;;1028840;28;20399;-78
2022/12/27 01:47:32;;;;;;;105.60;46.80;;;;;;;;;;1027397;28;20023;-77
2022/12/27 01:48:03;;;;;;;94.72;44.55;;;;;;;;;;1022965;28;20027;-77
2022/12/27 01:48:33;;;;;;;101.53;49.30;;;;;;;;;;1025241;28;20098;-77
2022/12/27 01:49:04;;;;;;;115.95;50.50;;;;;;;;;;1027923;28;20050;-78
2022/12/27 01:49:34;;;;;;;101.78;51.10;;;;;;;;;;1030321;28;20035;-78
2022/12/27 01:50:14;;;;;;;115.97;53.67;;;;;;;;;;1028465;28;20023;-78
2022/12/27 01:50:51;;;;;;;105.38;47.08;;;;;;;;;;1029020;28;20565;-78
2022/12/27 01:51:22;;;;;;;119.80;52.08;;;;;;;;;;1024627;28;20089;-78
2022/12/27 01:51:53;;;;;;;117.75;52.08;;;;;;;;;;1024891;28;20109;-78
2022/12/27 01:52:25;;;;;;;113.90;52.40;;;;;;;;;;1022329;28;20086;-77
2022/12/27 01:52:56;;;;;;;127.20;52.90;;;;;;;;;;1022008;29;20027;-78
2022/12/27 01:53:34;;;;;;;107.90;48.22;;;;;;;;;;1020690;28;20011;-78
2022/12/27 01:54:04;;;;;;;89.22;46.28;;;;;;;;;;1025968;28;20050;-78
2022/12/27 01:54:35;;;;;;;106.97;48.10;;;;;;;;;;1028933;28;20030;-78
2022/12/27 01:55:09;;;;;;;103.05;47.58;;;;;;;;;;1027060;28;20045;-77
2022/12/27 01:55:46;;;;;;;103.53;47.95;;;;;;;;;;1028421;28;20074;-77
2022/12/27 01:56:25;;;;;;;128.85;55.45;;;;;;;;;;1027510;28;20470;-78
2022/12/27 01:56:58;;;;;;;181.45;68.63;;;;;;;;;;1026611;28;20037;-78
2022/12/27 01:57:29;;;;;;;191.45;76.55;;;;;;;;;;1029292;28;20022;-77
2022/12/27 01:58:03;;;;;;;117.90;52.90;;;;;;;;;;1027451;28;20518;-78
2022/12/27 01:58:49;;;;;;;125.65;52.38;;;;;;;;;;1026585;28;20406;-78
2022/12/27 01:59:20;;;;;;;128.85;52.97;;;;;;;;;;1026450;28;20030;-78
2022/12/27 01:59:52;;;;;;;132.48;51.67;;;;;;;;;;1025490;28;20069;-76
2022/12/27 02:00:23;;;;;;;114.88;48.85;;;;;;;;;;1027968;28;20041;-77
2022/12/27 02:00:54;;;;;;;124.40;54.30;;;;;;;;;;1028931;28;20034;-77
2022/12/27 02:01:28;;;;;;;104.93;49.85;;;;;;;;;;1027571;28;20027;-77
2022/12/27 02:02:02;;;;;;;132.32;54.40;;;;;;;;;;1029764;28;20034;-77
2022/12/27 02:02:33;;;;;;;128.57;58.50;;;;;;;;;;1027536;28;20019;-76
2022/12/27 02:03:05;;;;;;;109.78;51.40;;;;;;;;;;1029219;28;20705;-78
2022/12/27 02:03:41;;;;;;;129.90;54.72;;;;;;;;;;1029077;28;20022;-78
2022/12/27 02:04:14;;;;;;;133.20;58.38;;;;;;;;;;1028530;28;20027;-77
2022/12/27 02:04:44;;;;;;;138.70;57.83;;;;;;;;;;1029412;28;20058;-76
2022/12/27 02:05:16;;;;;;;117.15;52.50;;;;;;;;;;1024624;28;20080;-77
2022/12/27 02:05:48;;;;;;;116.97;46.83;;;;;;;;;;1024243;28;20023;-77
2022/12/27 02:06:20;;;;;;;130.32;54.60;;;;;;;;;;1024552;28;20022;-77
2022/12/27 02:06:57;;;;;;;134.70;55.22;;;;;;;;;;1025460;28;20456;-77
2022/12/27 02:07:33;;;;;;;129.18;56.60;;;;;;;;;;1024036;28;20023;-76
2022/12/27 02:08:22;;;;;;;138.05;56.42;;;;;;;;;;1022137;29;20023;-76
2022/12/27 02:08:59;;;;;;;125.10;47.50;;;;;;;;;;1022137;29;20505;-76
2022/12/27 02:09:34;;;;;;;102.32;39.75;;;;;;;;;;1022291;28;20295;-77
2022/12/27 02:10:05;;;;;;;100.72;42.60;;;;;;;;;;1025354;28;20475;-76
2022/12/27 02:10:36;;;;;;;95.63;41.03;;;;;;;;;;1025196;28;20186;-76
2022/12/27 02:11:07;;;;;;;119.45;51.85;;;;;;;;;;1028719;28;20030;-77
2022/12/27 02:11:50;;;;;;;142.65;60.85;;;;;;;;;;1029371;28;20026;-77
2022/12/27 02:12:21;;;;;;;118.47;56.97;;;;;;;;;;1027670;28;20065;-77
2022/12/27 02:12:52;;;;;;;135.10;59.78;;;;;;;;;;1028748;28;20121;-77
2022/12/27 02:13:22;;;;;;;133.55;60.13;;;;;;;;;;1026818;28;20029;-77
2022/12/27 02:13:53;;;;;;;124.60;59.13;;;;;;;;;;1027732;28;20034;-77
2022/12/27 02:14:27;;;;;;;132.82;64.30;;;;;;;;;;1029229;28;20027;-78
2022/12/27 02:15:03;;;;;;;125.57;59.78;;;;;;;;;;1030773;28;20030;-76
2022/12/27 02:15:34;;;;;;;143.80;67.18;;;;;;;;;;1026484;28;20089;-77
2022/12/27 02:16:16;;;;;;;143.20;64.55;;;;;;;;;;1023631;28;20035;-76
2022/12/27 02:16:56;;;;;;;140.35;60.00;;;;;;;;;;1025670;28;20019;-77
2022/12/27 02:17:32;;;;;;;121.03;57.83;;;;;;;;;;1027484;28;20415;-78
2022/12/27 02:18:04;;;;;;;122.57;56.67;;;;;;;;;;1023847;28;20031;-77
2022/12/27 02:18:36;;;;;;;112.53;56.08;;;;;;;;;;1027147;28;20028;-77
2022/12/27 02:19:14;;;;;;;126.85;58.65;;;;;;;;;;1027452;28;20644;-77
2022/12/27 02:20:03;;;;;;;132.73;55.35;;;;;;;;;;1025640;28;20144;-77
2022/12/27 02:20:42;;;;;;;128.00;55.05;;;;;;;;;;1023933;28;20149;-76
2022/12/27 02:21:33;;;;;;;114.60;51.03;;;;;;;;;;1018485;29;20164;-77
2022/12/27 02:22:04;;;;;;;106.97;49.80;;;;;;;;;;1019627;29;20380;-76
2022/12/27 02:24:30;;;;;;;110.82;47.25;;;;;;;;;;1028454;28;20030;-76
2022/12/27 02:25:07;;;;;;;100.22;47.95;;;;;;;;;;1028064;28;20537;-77
2022/12/27 02:25:56;;;;;;;101.82;43.28;;;;;;;;;;1030164;28;20097;-77
2022/12/27 02:26:41;;;;;;;90.78;44.53;;;;;;;;;;1027941;28;20027;-77
2022/12/27 02:27:27;;;;;;;81.65;40.60;;;;;;;;;;1029094;28;20746;-77
2022/12/27 02:28:10;;;;;;;94.18;45.55;;;;;;;;;;1029007;28;20158;-76
2022/12/27 02:28:59;;;;;;;93.60;45.30;;;;;;;;;;1027980;28;20029;-77
2022/12/27 02:29:51;;;;;;;88.88;44.40;;;;;;;;;;1026707;28;20950;-78
2022/12/27 02:30:23;;;;;;;89.82;43.85;;;;;;;;;;1028031;28;20062;-78
2022/12/27 02:30:58;;;;;;;91.00;47.70;;;;;;;;;;1024224;28;20022;-78
2022/12/27 02:31:34;;;;;;;122.15;61.05;;;;;;;;;;1030677;28;20026;-77
2022/12/27 02:32:08;;;;;;;124.50;59.30;;;;;;;;;;1025699;28;20070;-78
2022/12/27 02:32:54;;;;;;;120.07;60.00;;;;;;;;;;1024154;28;20069;-78
2022/12/27 02:33:27;;;;;;;134.05;55.38;;;;;;;;;;1024533;28;20034;-77
2022/12/27 02:33:59;;;;;;;131.30;59.50;;;;;;;;;;1027881;28;20121;-76
2022/12/27 02:34:50;;;;;;;124.75;60.50;;;;;;;;;;1025753;28;20031;-76
2022/12/27 02:35:24;;;;;;;139.60;62.17;;;;;;;;;;1027877;28;20048;-77
2022/12/27 02:35:59;;;;;;;116.53;59.13;;;;;;;;;;1025865;28;20577;-77
2022/12/27 02:36:33;;;;;;;104.63;53.03;;;;;;;;;;1022450;28;20042;-76
2022/12/27 02:37:08;;;;;;;111.20;47.80;;;;;;;;;;1022825;28;20483;-76
2022/12/27 02:37:45;;;;;;;77.55;39.47;;;;;;;;;;1024305;28;20858;-78
2022/12/27 02:38:31;;;;;;;65.15;35.55;;;;;;;;;;1023803;28;20035;-78
2022/12/27 02:39:03;;;;;;;72.65;32.47;;;;;;;;;;1021171;29;20451;-76
2022/12/27 02:39:36;;;;;;;68.65;30.83;;;;;;;;;;1020480;28;20091;-77
2022/12/27 02:53:36;;;;;;;102.65;49.65;;;;;;;;;;1028870;28;20031;-76
2022/12/27 02:54:16;;;;;;;102.30;49.67;;;;;;;;;;1030654;28;20046;-77
2022/12/27 02:55:03;;;;;;;111.07;50.40;;;;;;;;;;1029351;28;20050;-77
2022/12/27 02:57:09;;;;;;;115.38;50.50;;;;;;;;;;1026878;28;20380;-77
2022/12/27 02:57:39;;;;;;;101.93;53.78;;;;;;;;;;1030097;28;20490;-78
2022/12/27 02:58:42;;;;;;;131.15;59.38;;;;;;;;;;1029976;28;20027;-78
2022/12/27 02:59:19;;;;;;;97.28;46.83;;;;;;;;;;1008548;29;20129;-78
2022/12/27 03:03:24;;;;;;;133.27;55.03;;;;;;;;;;1028325;28;20089;-78
2022/12/27 03:04:06;;;;;;;130.60;59.33;;;;;;;;;;1029720;28;20552;-78
2022/12/27 03:04:40;;;;;;;113.47;60.05;;;;;;;;;;1028744;28;20026;-77
2022/12/27 03:05:26;;;;;;;127.43;65.57;;;;;;;;;;1029408;28;20034;-79
2022/12/27 03:07:17;;;;;;;135.77;56.33;;;;;;;;;;1029270;28;20027;-77
2022/12/27 03:07:47;;;;;;;118.70;56.92;;;;;;;;;;1030433;28;20022;-78
2022/12/27 03:08:24;;;;;;;121.45;56.95;;;;;;;;;;1030094;28;20148;-77
2022/12/27 03:08:56;;;;;;;125.78;54.63;;;;;;;;;;1029233;28;20521;-77
2022/12/27 03:16:24;;;;;;;127.63;53.47;;;;;;;;;;1027975;28;20526;-78
2022/12/27 03:16:59;;;;;;;148.93;59.83;;;;;;;;;;1024893;28;20023;-78
2022/12/27 03:17:35;;;;;;;127.82;56.13;;;;;;;;;;1026554;28;20097;-77
2022/12/27 03:18:09;;;;;;;113.07;53.22;;;;;;;;;;1026556;28;20022;-78
2022/12/27 03:18:58;;;;;;;138.75;54.17;;;;;;;;;;1026881;28;20026;-79
2022/12/27 03:25:30;;;;;;;122.43;50.92;;;;;;;;;;1034948;28;20026;-80
2022/12/27 03:26:02;;;;;;;113.40;50.95;;;;;;;;;;1033332;28;21154;-79
2022/12/27 03:26:34;;;;;;;155.18;51.47;;;;;;;;;;1033450;28;20049;-78
2022/12/27 03:27:10;;;;;;;136.43;49.92;;;;;;;;;;1030064;28;20065;-79
2022/12/27 03:27:42;;;;;;;139.60;48.17;;;;;;;;;;1030236;23;20026;-79
2022/12/27 03:33:15;;;;;;;119.13;53.47;;;;;;;;;;1012842;29;20568;-78
2022/12/27 03:33:48;;;;;;;126.47;51.50;;;;;;;;;;1010781;29;20592;-78
2022/12/27 03:34:34;;;;;;;123.82;51.45;;;;;;;;;;1006787;29;20032;-78
2022/12/27 03:35:09;;;;;;;113.07;49.05;;;;;;;;;;1012420;29;20039;-77
2022/12/27 03:38:01;;;;;;;112.07;52.53;;;;;;;;;;1014069;29;20039;-78
2022/12/27 03:38:17;;;;;;;140.73;53.25;;;;;;;;;;1018165;29;20024;-77
2022/12/27 03:38:54;;;;;;;123.70;53.00;;;;;;;;;;1019904;29;20735;-76
2022/12/27 03:39:26;;;;;;;114.43;50.75;;;;;;;;;;1020066;29;20043;-77
2022/12/27 03:40:02;;;;;;;125.43;52.65;;;;;;;;;;1031051;23;20365;-78
2022/12/27 03:40:38;;;;;;;111.68;50.63;;;;;;;;;;1024687;28;20051;-76
2022/12/27 03:43:12;;;;;;;129.70;52.28;;;;;;;;;;1029445;28;20373;-78
2022/12/27 03:43:44;;;;;;;129.23;56.28;;;;;;;;;;1031901;28;20041;-78
2022/12/27 03:44:24;;;;;;;116.90;52.45;;;;;;;;;;1028872;28;20108;-77
2022/12/27 03:44:57;;;;;;;120.95;52.60;;;;;;;;;;1030630;28;20137;-77
2022/12/27 03:46:43;;;;;;;128.00;48.33;;;;;;;;;;1027119;28;20053;-78
2022/12/27 03:47:22;;;;;;;133.98;53.45;;;;;;;;;;1031432;28;20487;-78
2022/12/27 03:48:00;;;;;;;136.45;55.92;;;;;;;;;;1030928;28;20568;-77
2022/12/27 03:48:36;;;;;;;131.25;56.67;;;;;;;;;;1030083;28;20031;-77
2022/12/27 03:49:16;;;;;;;137.15;56.13;;;;;;;;;;1026565;28;20065;-78
2022/12/27 03:49:51;;;;;;;125.68;58.60;;;;;;;;;;1007764;28;20029;-78
2022/12/27 03:50:24;;;;;;;143.75;61.65;;;;;;;;;;1031776;28;20018;-79
2022/12/27 03:51:03;;;;;;;150.20;64.05;;;;;;;;;;1034926;28;20017;-78
2022/12/27 03:51:57;;;;;;;135.07;62.50;;;;;;;;;;1034045;28;20030;-79
2022/12/27 03:52:33;;;;;;;160.85;64.63;;;;;;;;;;1027266;28;20217;-78
2022/12/27 03:53:08;;;;;;;148.65;66.80;;;;;;;;;;1029447;28;20062;-78
2022/12/27 03:53:41;;;;;;;161.90;74.25;;;;;;;;;;1026202;28;20096;-78
2022/12/27 03:54:16;;;;;;;171.20;75.53;;;;;;;;;;1025518;28;21043;-77
2022/12/27 03:54:49;;;;;;;172.00;73.72;;;;;;;;;;1027943;28;20061;-80
2022/12/27 03:55:20;;;;;;;186.60;78.10;;;;;;;;;;1026721;28;20160;-79
2022/12/27 03:55:51;;;;;;;190.30;83.82;;;;;;;;;;1030586;28;20032;-77
2022/12/27 03:56:22;;;;;;;188.73;85.70;;;;;;;;;;1029416;28;20069;-78
2022/12/27 03:56:54;;;;;;;198.52;83.00;;;;;;;;;;1028950;28;20021;-79
2022/12/27 03:57:25;;;;;;;187.80;85.18;;;;;;;;;;1030996;28;20084;-78